createdAt,value
2022-09-25T00:04:23.918Z,11.26
2022-09-25T00:09:26.771Z,11.26
2022-09-25T00:14:31.013Z,11.26
2022-09-25T00:19:51.890Z,11.14
2022-09-25T00:24:54.983Z,11.12
2022-09-25T00:30:00.286Z,11.11
2022-09-25T00:35:03.349Z,11.09
2022-09-25T00:40:07.344Z,10.96
2022-09-25T00:45:17.243Z,10.87
2022-09-25T00:50:30.046Z,10.93
2022-09-25T00:55:33.924Z,10.95
2022-09-25T01:00:38.325Z,10.96
2022-09-25T01:05:45.256Z,11.01
2022-09-25T01:10:48.169Z,10.98
2022-09-25T01:16:00.358Z,10.92
2022-09-25T01:21:17.416Z,10.88
2022-09-25T01:26:37.894Z,10.88
2022-09-25T01:31:47.609Z,10.84
2022-09-25T01:36:58.758Z,10.78
2022-09-25T01:42:07.716Z,10.77
2022-09-25T01:47:18.658Z,10.73
2022-09-25T01:52:27.002Z,10.63
2022-09-25T01:57:37.585Z,10.57
2022-09-25T02:02:48.223Z,10.58
2022-09-25T02:07:56.783Z,10.66
2022-09-25T02:13:06.748Z,10.63
2022-09-25T02:18:33.031Z,10.65
2022-09-25T02:23:45.241Z,10.72
2022-09-25T02:28:48.792Z,10.64
2022-09-25T02:33:53.277Z,10.64
2022-09-25T02:38:57.201Z,10.68
2022-09-25T02:44:18.121Z,10.59
2022-09-25T02:49:30.479Z,10.34
2022-09-25T02:54:38.736Z,10.37
2022-09-25T02:59:46.175Z,10.50
2022-09-25T03:04:52.388Z,10.52
2022-09-25T03:09:59.016Z,10.60
2022-09-25T03:15:01.926Z,10.60
2022-09-25T03:20:07.058Z,10.47
2022-09-25T03:25:10.079Z,10.53
2022-09-25T03:30:14.190Z,10.48
2022-09-25T03:35:18.366Z,10.34
2022-09-25T03:40:21.451Z,10.44
2022-09-25T03:45:24.830Z,10.34
2022-09-25T03:50:28.957Z,10.64
2022-09-25T03:55:31.862Z,10.40
2022-09-25T04:00:34.695Z,10.37
2022-09-25T04:05:39.504Z,10.45
2022-09-25T04:10:42.411Z,10.48
2022-09-25T04:15:45.225Z,10.46
2022-09-25T04:20:49.392Z,10.36
2022-09-25T04:25:52.258Z,10.27
2022-09-25T04:30:55.144Z,10.21
2022-09-25T04:35:59.263Z,10.23
2022-09-25T04:41:02.560Z,10.13
2022-09-25T04:46:08.228Z,9.99
2022-09-25T04:51:12.544Z,10.13
2022-09-25T04:56:16.660Z,10.05
2022-09-25T05:01:21.591Z,10.06
2022-09-25T05:06:26.970Z,9.97
2022-09-25T05:11:29.863Z,9.96
2022-09-25T05:16:32.813Z,9.97
2022-09-25T05:21:37.061Z,9.96
2022-09-25T05:26:40.808Z,10.01
2022-09-25T05:31:46.733Z,9.84
2022-09-25T05:36:51.618Z,9.65
2022-09-25T05:41:54.569Z,9.85
2022-09-25T05:46:57.397Z,9.93
2022-09-25T05:52:01.797Z,9.98
2022-09-25T05:57:04.797Z,9.87
2022-09-25T06:02:07.694Z,10.02
2022-09-25T06:07:11.876Z,9.88
2022-09-25T06:12:14.643Z,10.06
2022-09-25T06:17:17.265Z,10.17
2022-09-25T06:22:21.478Z,10.27
2022-09-25T06:27:24.360Z,10.30
2022-09-25T06:32:27.408Z,10.09
2022-09-25T06:37:31.598Z,9.91
2022-09-25T06:42:35.223Z,9.90
2022-09-25T06:53:17.687Z,10.36
2022-09-25T06:58:22.262Z,10.42
2022-09-25T07:03:42.686Z,10.30
2022-09-25T07:08:48.097Z,10.76
2022-09-25T07:13:52.252Z,10.76
2022-09-25T07:18:55.586Z,10.79
2022-09-25T07:23:59.965Z,10.90
2022-09-25T07:29:04.742Z,11.26
2022-09-25T07:34:10.040Z,12.29
2022-09-25T07:39:18.392Z,12.92
2022-09-25T07:44:29.176Z,12.21
2022-09-25T07:49:32.937Z,11.73
2022-09-25T07:54:37.765Z,12.06
2022-09-25T07:59:40.524Z,12.01
2022-09-25T08:04:43.317Z,11.71
2022-09-25T08:09:47.459Z,12.42
2022-09-25T08:14:50.219Z,12.89
2022-09-25T08:19:53.122Z,13.48
2022-09-25T08:24:57.296Z,13.42
2022-09-25T08:30:00.478Z,13.54
2022-09-25T08:35:03.615Z,13.39
2022-09-25T08:40:14.086Z,13.59
2022-09-25T08:45:44.694Z,13.04
2022-09-25T08:50:48.159Z,13.59
2022-09-25T08:56:10.327Z,14.37
2022-09-25T09:01:15.958Z,14.63
2022-09-25T09:06:20.630Z,14.73
2022-09-25T09:11:32.127Z,15.67
2022-09-25T09:16:43.203Z,16.24
2022-09-25T09:22:10.497Z,16.71
2022-09-25T09:27:39.736Z,16.01
2022-09-25T09:33:27.998Z,14.93
2022-09-25T09:38:52.700Z,16.27
2022-09-25T09:44:22.219Z,15.37
2022-09-25T09:49:47.245Z,16.05
2022-09-25T09:55:03.368Z,17.14
2022-09-25T10:00:36.870Z,17.90
2022-09-25T10:05:54.921Z,18.47
2022-09-25T10:11:23.022Z,17.58
2022-09-25T10:16:47.428Z,16.95
2022-09-25T10:22:02.610Z,16.67
2022-09-25T10:27:31.223Z,15.82
2022-09-25T10:32:56.466Z,15.68
2022-09-25T10:38:08.565Z,15.68
2022-09-25T10:43:28.363Z,15.51
2022-09-25T10:49:21.225Z,15.53
2022-09-25T10:54:45.158Z,15.56
2022-09-25T10:59:55.471Z,17.36
2022-09-25T11:05:09.559Z,17.10
2022-09-25T11:10:26.270Z,18.71
2022-09-25T11:15:35.242Z,17.99
2022-09-25T11:20:45.813Z,15.12
2022-09-25T11:25:55.483Z,14.89
2022-09-25T11:31:14.250Z,15.32
2022-09-25T11:36:26.842Z,15.83
2022-09-25T11:41:48.329Z,16.43
2022-09-25T11:47:05.499Z,16.42
2022-09-25T11:52:47.232Z,19.83
2022-09-25T11:58:07.930Z,22.50
2022-09-25T12:03:30.051Z,22.97
2022-09-25T12:09:08.786Z,21.50
2022-09-25T12:14:25.847Z,17.96
2022-09-25T12:19:50.144Z,17.51
2022-09-25T12:25:20.180Z,19.00
2022-09-25T12:30:39.472Z,19.34
2022-09-25T12:41:43.504Z,15.54
2022-09-25T12:47:16.122Z,16.72
2022-09-25T12:52:35.308Z,16.67
2022-09-25T12:58:18.755Z,16.81
2022-09-25T13:03:33.226Z,16.21
2022-09-25T13:08:57.528Z,17.33
2022-09-25T13:14:04.083Z,17.35
2022-09-25T13:19:25.326Z,17.95
2022-09-25T13:24:28.435Z,22.45
2022-09-25T13:29:36.561Z,20.28
2022-09-25T13:34:41.667Z,18.10
2022-09-25T13:40:06.476Z,17.78
2022-09-25T13:45:33.502Z,17.07
2022-09-25T13:50:39.926Z,16.97
2022-09-25T13:55:43.662Z,17.14
2022-09-25T14:00:57.620Z,16.92
2022-09-25T14:06:01.801Z,16.88
2022-09-25T14:11:09.215Z,17.11
2022-09-25T14:16:29.694Z,17.07
2022-09-25T14:21:34.535Z,18.01
2022-09-25T14:26:44.185Z,18.55
2022-09-25T14:32:04.911Z,18.60
2022-09-25T14:42:39.567Z,18.52
2022-09-25T14:47:47.423Z,18.35
2022-09-25T14:52:55.483Z,17.63
2022-09-25T14:57:58.693Z,19.29
2022-09-25T15:03:03.674Z,20.40
2022-09-25T15:08:21.433Z,20.66
2022-09-25T15:13:24.160Z,19.98
2022-09-25T15:18:30.609Z,18.88
2022-09-25T15:23:35.348Z,19.15
2022-09-25T15:28:39.983Z,19.24
2022-09-25T15:33:44.413Z,20.49
2022-09-25T15:38:54.024Z,21.20
2022-09-25T15:44:14.576Z,21.15
2022-09-25T15:49:22.325Z,20.34
2022-09-25T15:54:44.450Z,18.70
2022-09-25T16:00:07.160Z,17.46
2022-09-25T16:05:12.274Z,16.90
2022-09-25T16:10:33.494Z,17.26
2022-09-25T16:15:54.633Z,17.48
2022-09-25T16:21:13.560Z,17.62
2022-09-25T16:26:22.097Z,16.95
2022-09-25T16:31:25.976Z,16.72
2022-09-25T16:36:39.994Z,16.69
2022-09-25T16:41:48.470Z,16.25
2022-09-25T16:47:21.513Z,15.55
2022-09-25T16:52:28.922Z,15.39
2022-09-25T16:57:33.258Z,15.41
2022-09-25T17:02:41.807Z,14.97
2022-09-25T17:07:48.521Z,14.56
2022-09-25T17:12:54.137Z,13.92
2022-09-25T17:17:57.053Z,14.01
2022-09-25T17:28:39.239Z,13.91
2022-09-25T17:33:42.292Z,13.79
2022-09-25T17:38:46.658Z,13.62
2022-09-25T17:43:50.783Z,13.54
2022-09-25T17:48:54.902Z,13.43
2022-09-25T17:53:59.525Z,13.31
2022-09-25T17:59:05.265Z,13.16
2022-09-25T18:04:19.538Z,13.01
2022-09-25T18:09:22.355Z,12.84
2022-09-25T18:14:26.570Z,12.77
2022-09-25T18:19:46.723Z,12.71
2022-09-25T18:24:52.762Z,12.57
2022-09-25T18:29:57.807Z,12.30
2022-09-25T18:35:02.464Z,12.25
2022-09-25T18:40:06.015Z,12.28
2022-09-25T18:45:12.963Z,12.26
2022-09-25T18:50:20.619Z,12.14
2022-09-25T18:55:23.920Z,12.04
2022-09-25T19:00:28.262Z,11.94
2022-09-25T19:05:31.456Z,11.68
2022-09-25T19:10:35.526Z,11.40
2022-09-25T19:15:43.309Z,11.14
2022-09-25T19:20:51.748Z,10.76
2022-09-25T19:25:56.421Z,10.70
2022-09-25T19:31:03.690Z,10.90
2022-09-25T19:36:08.939Z,10.93
2022-09-25T19:41:14.650Z,10.79
2022-09-25T19:46:20.336Z,10.61
2022-09-25T19:51:24.584Z,10.62
2022-09-25T19:56:27.514Z,10.54
2022-09-25T20:01:31.736Z,10.53
2022-09-25T20:06:36.364Z,10.49
2022-09-25T20:11:39.307Z,10.42
2022-09-25T20:16:43.607Z,10.27
2022-09-25T20:21:46.430Z,10.23
2022-09-25T20:26:49.268Z,10.06
2022-09-25T20:31:53.810Z,9.91
2022-09-25T20:36:56.917Z,9.82
2022-09-25T20:41:59.839Z,9.86
2022-09-25T20:47:03.992Z,9.92
2022-09-25T20:52:06.836Z,9.99
2022-09-25T20:57:09.876Z,9.80
2022-09-25T21:02:14.187Z,9.50
2022-09-25T21:07:17.487Z,9.69
2022-09-25T21:12:21.379Z,9.74
2022-09-25T21:17:25.789Z,9.72
2022-09-25T21:22:28.590Z,9.67
2022-09-25T21:27:31.281Z,9.50
2022-09-25T21:32:35.456Z,9.41
2022-09-25T21:37:38.973Z,9.36
2022-09-25T21:42:41.745Z,9.53
2022-09-25T21:47:45.706Z,9.55
2022-09-25T21:52:48.462Z,9.49
2022-09-25T21:57:51.282Z,9.42
2022-09-25T22:02:55.504Z,9.39
2022-09-25T22:07:58.374Z,9.37
2022-09-25T22:13:01.582Z,9.31
2022-09-25T22:18:05.805Z,9.21
2022-09-25T22:23:08.633Z,9.17
2022-09-25T22:28:11.446Z,8.95
2022-09-25T22:33:15.606Z,8.99
2022-09-25T22:38:18.357Z,9.10
2022-09-25T22:43:20.940Z,9.35
2022-09-25T22:48:25.185Z,9.48
2022-09-25T22:53:30.440Z,9.39
2022-09-25T22:58:33.180Z,9.20
2022-09-25T23:03:37.131Z,9.17
2022-09-25T23:08:39.924Z,9.32
2022-09-25T23:13:42.569Z,9.31
2022-09-25T23:18:46.702Z,9.30
2022-09-25T23:23:49.514Z,9.28
2022-09-25T23:28:52.501Z,9.33
2022-09-25T23:33:57.247Z,9.16
2022-09-25T23:39:01.767Z,9.10
2022-09-25T23:44:06.699Z,9.16
2022-09-25T23:49:11.969Z,9.14
2022-09-25T23:54:15.352Z,9.26
2022-09-25T23:59:18.300Z,9.28
